createdAt,value
2023-07-12T00:02:28.287Z,15.82
2023-07-12T00:05:00.564Z,15.74
2023-07-12T00:07:34.858Z,15.71
2023-07-12T00:10:15.563Z,15.69
2023-07-12T00:12:47.628Z,15.64
2023-07-12T00:15:23.603Z,15.62
2023-07-12T00:17:59.244Z,15.60
2023-07-12T00:20:37.680Z,15.56
2023-07-12T00:23:11.720Z,15.53
2023-07-12T00:25:45.007Z,15.55
2023-07-12T00:28:24.495Z,15.56
2023-07-12T00:30:58.779Z,15.55
2023-07-12T00:33:31.376Z,15.54
2023-07-12T00:36:03.701Z,15.50
2023-07-12T00:38:38.518Z,15.49
2023-07-12T00:41:18.860Z,15.50
2023-07-12T00:43:55.685Z,15.49
2023-07-12T00:46:32.673Z,15.49
2023-07-12T00:49:05.110Z,15.47
2023-07-12T00:51:48.373Z,15.44
2023-07-12T00:54:23.519Z,15.44
2023-07-12T00:56:58.319Z,15.43
2023-07-12T00:59:33.285Z,15.44
2023-07-12T01:02:09.255Z,15.45
2023-07-12T01:04:45.296Z,15.46
2023-07-12T01:07:22.247Z,15.46
2023-07-12T01:09:55.010Z,15.46
2023-07-12T01:12:27.059Z,15.43
2023-07-12T01:14:59.225Z,15.37
2023-07-12T01:17:31.547Z,15.31
2023-07-12T01:20:04.562Z,15.27
2023-07-12T01:22:39.453Z,15.22
2023-07-12T01:25:11.918Z,15.19
2023-07-12T01:27:43.943Z,15.17
2023-07-12T01:30:21.786Z,15.17
2023-07-12T01:32:55.651Z,15.16
2023-07-12T01:35:29.159Z,15.14
2023-07-12T01:38:01.398Z,15.11
2023-07-12T01:40:33.361Z,15.08
2023-07-12T01:43:07.848Z,15.06
2023-07-12T01:45:40.362Z,15.04
2023-07-12T01:48:12.329Z,15.02
2023-07-12T01:50:44.686Z,15.02
2023-07-12T01:53:17.039Z,15.03
2023-07-12T01:55:49.347Z,15.00
2023-07-12T01:58:21.585Z,15.11
2023-07-12T02:00:54.725Z,15.43
2023-07-12T02:03:27.316Z,15.49
2023-07-12T02:06:00.498Z,15.47
2023-07-12T02:08:32.621Z,15.12
2023-07-12T02:11:04.771Z,14.90
2023-07-12T02:13:40.165Z,14.83
2023-07-12T02:16:12.556Z,14.80
2023-07-12T02:18:46.963Z,14.76
2023-07-12T02:21:22.122Z,14.75
2023-07-12T02:23:56.987Z,14.75
2023-07-12T02:26:29.013Z,14.73
2023-07-12T02:29:01.316Z,14.71
2023-07-12T02:31:34.436Z,14.70
2023-07-12T02:34:06.831Z,14.69
2023-07-12T02:36:38.847Z,14.67
2023-07-12T02:39:10.881Z,14.66
2023-07-12T02:41:43.057Z,14.67
2023-07-12T02:44:15.077Z,14.68
2023-07-12T02:46:47.026Z,14.69
2023-07-12T02:49:19.070Z,14.70
2023-07-12T02:51:51.066Z,14.70
2023-07-12T02:54:23.119Z,14.70
2023-07-12T02:56:56.074Z,14.70
2023-07-12T02:59:28.757Z,14.69
2023-07-12T03:02:01.097Z,14.69
2023-07-12T03:04:33.214Z,14.70
2023-07-12T03:07:05.377Z,14.71
2023-07-12T03:09:39.566Z,14.72
2023-07-12T03:12:12.195Z,14.73
2023-07-12T03:14:44.534Z,14.75
2023-07-12T03:17:16.927Z,14.76
2023-07-12T03:19:49.065Z,14.79
2023-07-12T03:22:21.102Z,14.82
2023-07-12T03:24:53.162Z,14.85
2023-07-12T03:27:25.643Z,14.88
2023-07-12T03:29:57.867Z,14.93
2023-07-12T03:32:29.925Z,14.95
2023-07-12T03:35:02.294Z,14.94
2023-07-12T03:37:34.282Z,14.95
2023-07-12T03:40:08.969Z,14.99
2023-07-12T03:42:41.147Z,15.02
2023-07-12T03:45:13.792Z,15.05
2023-07-12T03:47:45.949Z,15.09
2023-07-12T03:50:18.216Z,15.12
2023-07-12T03:52:50.225Z,15.17
2023-07-12T03:55:22.378Z,15.21
2023-07-12T03:57:54.392Z,15.24
2023-07-12T04:00:27.547Z,15.29
2023-07-12T04:03:00.645Z,15.37
2023-07-12T04:05:37.546Z,15.46
2023-07-12T04:08:10.816Z,15.52
2023-07-12T04:10:43.196Z,15.60
2023-07-12T04:13:15.274Z,15.71
2023-07-12T04:15:47.722Z,15.81
2023-07-12T04:18:20.141Z,15.92
2023-07-12T04:20:52.761Z,16.06
2023-07-12T04:23:25.106Z,16.19
2023-07-12T04:26:03.783Z,16.34
2023-07-12T04:28:39.065Z,16.48
2023-07-12T04:31:14.769Z,16.59
2023-07-12T04:33:48.056Z,16.74
2023-07-12T04:36:21.141Z,16.89
2023-07-12T04:38:53.106Z,17.02
2023-07-12T04:41:25.248Z,17.14
2023-07-12T04:43:57.293Z,17.28
2023-07-12T04:46:31.752Z,17.39
2023-07-12T04:49:03.773Z,17.50
2023-07-12T04:51:37.482Z,17.59
2023-07-12T04:54:09.685Z,17.71
2023-07-12T04:56:41.770Z,17.85
2023-07-12T04:59:16.525Z,18.00
2023-07-12T05:01:48.690Z,18.14
2023-07-12T05:04:20.695Z,18.31
2023-07-12T05:06:53.412Z,18.49
2023-07-12T05:09:25.524Z,18.67
2023-07-12T05:11:57.574Z,18.81
2023-07-12T05:14:30.014Z,18.93
2023-07-12T05:17:02.120Z,19.04
2023-07-12T05:19:36.193Z,19.14
2023-07-12T05:22:09.624Z,19.24
2023-07-12T05:24:42.967Z,19.34
2023-07-12T05:27:17.242Z,19.46
2023-07-12T05:29:50.892Z,19.58
2023-07-12T05:32:23.089Z,19.71
2023-07-12T05:34:55.511Z,19.83
2023-07-12T05:37:31.330Z,19.94
2023-07-12T05:40:06.619Z,20.05
2023-07-12T05:42:42.621Z,20.14
2023-07-12T05:45:16.053Z,20.24
2023-07-12T05:47:51.156Z,20.33
2023-07-12T05:50:27.520Z,20.43
2023-07-12T05:52:59.628Z,20.50
2023-07-12T05:55:32.620Z,20.57
2023-07-12T05:58:07.960Z,20.63
2023-07-12T06:00:40.778Z,20.69
2023-07-12T06:03:14.642Z,20.72
2023-07-12T06:05:46.837Z,20.75
2023-07-12T06:08:18.866Z,20.79
2023-07-12T06:10:50.992Z,20.81
2023-07-12T06:13:23.250Z,20.84
2023-07-12T06:15:55.407Z,20.90
2023-07-12T06:18:27.621Z,20.97
2023-07-12T06:21:02.671Z,21.02
2023-07-12T06:23:34.713Z,21.08
2023-07-12T06:26:07.272Z,21.14
2023-07-12T06:28:39.385Z,21.19
2023-07-12T06:31:11.660Z,21.25
2023-07-12T06:33:44.058Z,21.35
2023-07-12T06:36:16.100Z,21.44
2023-07-12T06:38:48.775Z,21.55
2023-07-12T06:41:21.105Z,21.66
2023-07-12T06:43:53.317Z,21.73
2023-07-12T06:46:25.357Z,21.80
2023-07-12T06:48:57.363Z,21.90
2023-07-12T06:51:29.286Z,22.01
2023-07-12T06:54:01.206Z,22.13
2023-07-12T06:56:33.160Z,22.24
2023-07-12T06:59:05.492Z,22.34
2023-07-12T07:01:37.453Z,22.45
2023-07-12T07:04:09.590Z,22.56
2023-07-12T07:06:41.568Z,22.65
2023-07-12T07:09:13.824Z,22.74
2023-07-12T07:11:46.082Z,22.84
2023-07-12T07:14:18.310Z,22.97
2023-07-12T07:16:50.519Z,23.10
2023-07-12T07:19:22.509Z,23.24
2023-07-12T07:21:54.431Z,23.38
2023-07-12T07:24:26.497Z,23.52
2023-07-12T07:26:58.664Z,23.62
2023-07-12T07:29:30.912Z,23.72
2023-07-12T07:32:03.961Z,23.81
2023-07-12T07:34:37.501Z,23.89
2023-07-12T07:37:09.549Z,23.97
2023-07-12T07:39:41.724Z,24.04
2023-07-12T07:42:13.767Z,24.15
2023-07-12T07:44:45.812Z,24.27
2023-07-12T07:47:18.092Z,24.42
2023-07-12T07:49:50.043Z,24.54
2023-07-12T07:52:21.987Z,24.63
2023-07-12T07:54:54.414Z,24.76
2023-07-12T07:57:26.482Z,24.93
2023-07-12T08:00:00.442Z,25.10
2023-07-12T08:02:32.544Z,25.19
2023-07-12T08:05:04.806Z,25.24
2023-07-12T08:07:43.236Z,25.25
2023-07-12T08:10:17.658Z,25.25
2023-07-12T08:12:50.794Z,25.20
2023-07-12T08:15:23.321Z,25.17
2023-07-12T08:17:55.878Z,25.13
2023-07-12T08:20:28.952Z,25.15
2023-07-12T08:23:04.235Z,25.19
2023-07-12T08:25:36.274Z,25.24
2023-07-12T08:28:08.384Z,25.31
2023-07-12T08:30:40.529Z,25.37
2023-07-12T08:33:12.783Z,25.48
2023-07-12T08:35:49.799Z,25.56
2023-07-12T08:38:23.823Z,25.57
2023-07-12T08:40:57.364Z,25.54
2023-07-12T08:43:34.070Z,25.48
2023-07-12T08:46:13.537Z,25.42
2023-07-12T08:48:46.055Z,25.37
2023-07-12T08:51:30.946Z,25.34
2023-07-12T08:54:03.348Z,25.37
2023-07-12T08:56:35.329Z,25.47
2023-07-12T08:59:19.865Z,25.53
2023-07-12T09:01:59.477Z,25.55
2023-07-12T09:04:33.501Z,25.53
2023-07-12T09:07:08.826Z,25.48
2023-07-12T09:09:42.114Z,25.43
2023-07-12T09:12:26.650Z,25.40
2023-07-12T09:15:05.018Z,25.33
2023-07-12T09:17:44.614Z,25.31
2023-07-12T09:20:26.877Z,25.29
2023-07-12T09:23:01.150Z,25.24
2023-07-12T09:25:40.475Z,25.18
2023-07-12T09:28:16.783Z,25.13
2023-07-12T09:30:48.830Z,25.08
2023-07-12T09:33:24.259Z,25.04
2023-07-12T09:36:01.836Z,25.06
2023-07-12T09:38:39.365Z,25.08
2023-07-12T09:41:19.462Z,25.10
2023-07-12T09:43:57.134Z,25.10
2023-07-12T09:46:37.636Z,25.07
2023-07-12T09:49:14.639Z,25.02
2023-07-12T09:51:55.927Z,24.97
2023-07-12T09:55:18.353Z,24.86
2023-07-12T09:58:00.272Z,24.63
2023-07-12T10:00:39.817Z,24.35
2023-07-12T10:07:29.303Z,23.81
2023-07-12T10:10:02.020Z,23.70
2023-07-12T10:15:46.497Z,23.62
2023-07-12T10:18:22.384Z,23.59
2023-07-12T10:20:54.641Z,23.58
2023-07-12T10:23:31.480Z,23.60
2023-07-12T10:32:06.874Z,23.79
2023-07-12T10:35:00.230Z,23.93
2023-07-12T10:37:38.141Z,24.08
2023-07-12T10:40:24.626Z,24.22
2023-07-12T10:43:03.636Z,24.42
2023-07-12T10:49:12.161Z,24.88
2023-07-12T10:51:47.119Z,25.24
2023-07-12T10:55:07.945Z,25.52
2023-07-12T10:57:52.097Z,25.83
2023-07-12T11:00:32.385Z,26.03
2023-07-12T11:03:34.844Z,26.21
2023-07-12T11:06:24.056Z,26.31
2023-07-12T11:12:57.320Z,26.50
2023-07-12T11:15:30.579Z,26.55
2023-07-12T11:18:35.458Z,26.54
2023-07-12T11:21:41.739Z,26.52
2023-07-12T11:28:00.554Z,26.50
2023-07-12T11:30:46.523Z,26.48
2023-07-12T11:33:37.344Z,26.46
2023-07-12T11:36:20.181Z,26.45
2023-07-12T11:38:54.332Z,26.49
2023-07-12T11:41:28.582Z,26.55
2023-07-12T11:44:05.234Z,26.57
2023-07-12T11:46:39.807Z,26.57
2023-07-12T11:49:18.631Z,26.59
2023-07-12T11:51:54.810Z,26.60
2023-07-12T11:54:35.249Z,26.63
2023-07-12T11:57:13.312Z,26.70
2023-07-12T11:59:48.406Z,26.72
2023-07-12T12:02:22.645Z,26.72
2023-07-12T12:05:00.927Z,26.75
2023-07-12T12:07:38.425Z,26.77
2023-07-12T12:10:23.561Z,26.82
2023-07-12T12:12:57.106Z,26.84
2023-07-12T12:15:32.305Z,26.83
2023-07-12T12:18:16.225Z,26.90
2023-07-12T12:20:58.565Z,27.06
2023-07-12T12:23:33.277Z,27.20
2023-07-12T12:29:38.786Z,27.59
2023-07-12T12:32:18.090Z,27.70
2023-07-12T12:34:57.708Z,27.81
2023-07-12T12:37:30.878Z,27.87
2023-07-12T12:40:07.815Z,27.90
2023-07-12T12:42:55.443Z,27.92
2023-07-12T12:45:29.327Z,28.06
2023-07-12T12:48:10.874Z,28.18
2023-07-12T13:01:14.812Z,27.95
2023-07-12T13:06:33.384Z,28.06
2023-07-12T13:12:33.202Z,28.03
2023-07-12T13:18:00.484Z,27.92
2023-07-12T13:20:17.702Z,27.92
2023-07-12T13:22:50.350Z,27.92
2023-07-12T13:25:22.367Z,27.92
2023-07-12T13:27:57.307Z,27.93
2023-07-12T13:30:31.600Z,27.96
2023-07-12T13:33:03.992Z,27.95
2023-07-12T13:44:34.829Z,28.05
2023-07-12T13:46:19.011Z,28.24
2023-07-12T13:48:51.341Z,28.40
2023-07-12T13:51:25.869Z,28.49
2023-07-12T13:53:57.899Z,28.55
2023-07-12T13:56:46.514Z,28.57
2023-07-12T13:59:19.446Z,28.58
2023-07-12T14:04:31.743Z,28.54
2023-07-12T14:09:42.985Z,28.57
2023-07-12T14:12:18.606Z,28.60
2023-07-12T14:14:51.515Z,28.57
2023-07-12T14:17:27.516Z,28.51
2023-07-12T14:20:01.979Z,28.46
2023-07-12T14:22:35.156Z,28.46
2023-07-12T14:25:14.168Z,28.46
2023-07-12T14:27:52.967Z,28.42
2023-07-12T14:30:47.779Z,28.39
2023-07-12T14:33:32.722Z,28.32
2023-07-12T14:36:25.693Z,28.26
2023-07-12T14:39:11.563Z,28.24
2023-07-12T14:41:46.079Z,28.25
2023-07-12T14:44:26.154Z,28.26
2023-07-12T14:46:58.273Z,28.25
2023-07-12T14:49:30.371Z,28.30
2023-07-12T14:52:09.569Z,28.29
2023-07-12T14:54:58.437Z,28.17
2023-07-12T14:58:03.725Z,28.12
2023-07-12T15:00:24.677Z,28.14
2023-07-12T15:02:58.669Z,28.16
2023-07-12T15:05:39.611Z,28.21
2023-07-12T15:08:27.857Z,28.25
2023-07-12T15:11:04.844Z,28.25
2023-07-12T15:13:37.438Z,28.18
2023-07-12T15:16:26.768Z,28.11
2023-07-12T15:18:58.974Z,28.07
2023-07-12T15:21:34.243Z,28.01
2023-07-12T15:24:07.481Z,28.01
2023-07-12T15:26:39.825Z,28.02
2023-07-12T15:29:12.547Z,28.04
2023-07-12T15:31:45.695Z,28.06
2023-07-12T15:34:17.799Z,28.00
2023-07-12T15:36:49.767Z,28.00
2023-07-12T15:39:25.164Z,28.04
2023-07-12T15:41:57.337Z,28.10
2023-07-12T15:44:29.498Z,28.11
2023-07-12T15:47:02.970Z,28.13
2023-07-12T15:49:36.504Z,28.16
2023-07-12T15:52:27.633Z,28.18
2023-07-12T15:55:00.078Z,28.19
2023-07-12T15:58:17.256Z,28.15
2023-07-12T16:00:51.043Z,28.13
2023-07-12T16:03:25.420Z,28.09
2023-07-12T16:05:58.839Z,28.02
2023-07-12T16:08:32.093Z,27.96
2023-07-12T16:11:16.038Z,27.90
2023-07-12T16:16:27.932Z,27.78
2023-07-12T16:19:00.810Z,27.65
2023-07-12T16:21:35.133Z,27.52
2023-07-12T16:24:21.260Z,27.45
2023-07-12T16:26:53.565Z,27.36
2023-07-12T16:29:27.565Z,27.31
2023-07-12T16:32:19.190Z,27.30
2023-07-12T16:34:51.357Z,27.30
2023-07-12T16:37:23.837Z,27.27
2023-07-12T16:39:56.455Z,27.20
2023-07-12T16:42:43.830Z,27.16
2023-07-12T16:45:29.320Z,27.17
2023-07-12T16:48:03.214Z,27.21
2023-07-12T16:50:35.376Z,27.23
2023-07-12T16:53:19.404Z,27.20
2023-07-12T16:55:52.124Z,27.13
2023-07-12T16:58:25.977Z,27.11
2023-07-12T17:00:59.619Z,27.06
2023-07-12T17:03:40.182Z,26.99
2023-07-12T17:06:13.384Z,26.91
2023-07-12T17:08:54.496Z,26.82
2023-07-12T17:11:28.674Z,26.77
2023-07-12T17:14:03.715Z,26.69
2023-07-12T17:16:36.460Z,26.55
2023-07-12T17:19:27.153Z,26.44
2023-07-12T17:21:59.587Z,26.35
2023-07-12T17:24:32.038Z,26.30
2023-07-12T17:27:04.494Z,26.26
2023-07-12T17:29:36.855Z,26.20
2023-07-12T17:32:18.437Z,26.14
2023-07-12T17:34:53.167Z,26.10
2023-07-12T17:37:25.502Z,26.06
2023-07-12T17:40:07.496Z,26.03
2023-07-12T17:42:44.312Z,26.01
2023-07-12T17:45:46.412Z,25.96
2023-07-12T17:48:20.228Z,25.90
2023-07-12T17:51:18.692Z,25.81
2023-07-12T17:53:51.188Z,25.73
2023-07-12T17:56:31.377Z,25.68
2023-07-12T17:59:03.518Z,25.62
2023-07-12T18:01:36.653Z,25.56
2023-07-12T18:04:12.035Z,25.53
2023-07-12T18:06:44.521Z,25.53
2023-07-12T18:09:18.551Z,25.51
2023-07-12T18:11:51.090Z,25.50
2023-07-12T18:14:24.626Z,25.47
2023-07-12T18:16:57.262Z,25.40
2023-07-12T18:19:29.526Z,25.36
2023-07-12T18:22:01.796Z,25.33
2023-07-12T18:24:33.999Z,25.29
2023-07-12T18:27:11.010Z,25.25
2023-07-12T18:29:43.696Z,25.24
2023-07-12T18:32:30.621Z,25.24
2023-07-12T18:35:02.908Z,25.22
2023-07-12T18:37:37.179Z,25.17
2023-07-12T18:40:18.441Z,25.10
2023-07-12T18:42:52.983Z,24.94
2023-07-12T18:45:49.262Z,24.80
2023-07-12T18:48:23.592Z,24.70
2023-07-12T18:51:03.316Z,24.61
2023-07-12T18:53:35.562Z,24.53
2023-07-12T18:56:18.467Z,24.46
2023-07-12T18:58:50.866Z,24.36
2023-07-12T19:01:25.514Z,24.22
2023-07-12T19:03:59.226Z,24.08
2023-07-12T19:06:33.321Z,23.91
2023-07-12T19:09:08.066Z,23.65
2023-07-12T19:11:43.503Z,23.51
2023-07-12T19:14:20.690Z,23.44
2023-07-12T19:16:56.340Z,23.36
2023-07-12T19:19:29.051Z,23.29
2023-07-12T19:22:01.219Z,23.18
2023-07-12T19:24:34.763Z,23.05
2023-07-12T19:27:14.652Z,22.96
2023-07-12T19:32:57.696Z,22.86
2023-07-12T19:38:26.179Z,22.76
2023-07-12T19:40:58.630Z,22.73
2023-07-12T19:43:31.428Z,22.70
2023-07-12T19:46:03.640Z,22.68
2023-07-12T19:48:47.640Z,22.63
2023-07-12T19:51:28.189Z,22.53
2023-07-12T19:54:03.357Z,22.43
2023-07-12T19:56:36.301Z,22.35
2023-07-12T19:59:08.969Z,22.32
2023-07-12T20:01:41.492Z,22.41
2023-07-12T20:04:14.133Z,22.37
2023-07-12T20:06:46.547Z,22.39
2023-07-12T20:16:29.659Z,22.18
2023-07-12T20:22:35.258Z,21.98
2023-07-12T20:25:09.139Z,21.99
2023-07-12T20:27:41.973Z,22.01
2023-07-12T20:30:25.947Z,21.99
2023-07-12T20:32:58.057Z,22.00
2023-07-12T20:35:30.803Z,22.01
2023-07-12T20:38:05.299Z,22.01
2023-07-12T20:40:38.888Z,22.01
2023-07-12T20:47:45.634Z,21.97
2023-07-12T20:50:22.873Z,21.96
2023-07-12T20:52:55.237Z,21.92
2023-07-12T20:59:52.889Z,21.88
2023-07-12T21:07:01.413Z,21.77
2023-07-12T21:11:01.906Z,21.91
2023-07-12T21:13:35.623Z,21.68
2023-07-12T21:19:41.409Z,21.57
2023-07-12T21:25:47.985Z,21.52
2023-07-12T21:28:20.497Z,21.50
2023-07-12T21:34:17.291Z,21.38
2023-07-12T21:36:49.273Z,21.36
2023-07-12T21:42:55.320Z,21.29
2023-07-12T21:48:59.750Z,21.29
2023-07-12T21:55:28.443Z,21.27
2023-07-12T21:58:01.183Z,21.25
2023-07-12T22:00:33.560Z,21.26
2023-07-12T22:03:15.566Z,21.22
2023-07-12T22:05:48.757Z,21.21
2023-07-12T22:08:21.212Z,21.20
2023-07-12T22:10:53.347Z,21.22
2023-07-12T22:13:47.839Z,21.22
2023-07-12T22:16:22.683Z,21.22
2023-07-12T22:19:38.834Z,21.19
2023-07-12T22:23:13.451Z,21.10
2023-07-12T22:25:45.762Z,21.04
2023-07-12T22:37:12.547Z,20.87
2023-07-12T22:39:46.766Z,20.92
2023-07-12T22:42:18.959Z,20.99
2023-07-12T22:45:22.193Z,21.04
2023-07-12T22:47:54.875Z,21.05
2023-07-12T22:51:30.051Z,21.02
2023-07-12T22:54:02.128Z,21.04
2023-07-12T23:00:09.403Z,21.07
2023-07-12T23:02:41.621Z,21.07
2023-07-12T23:12:24.607Z,20.96
2023-07-12T23:15:01.044Z,20.97
2023-07-12T23:21:10.306Z,20.93
2023-07-12T23:23:43.072Z,20.90
2023-07-12T23:29:48.899Z,20.88
2023-07-12T23:40:16.901Z,20.86
2023-07-12T23:44:04.101Z,20.79
2023-07-12T23:46:36.269Z,20.75
2023-07-12T23:54:30.239Z,20.73
2023-07-12T23:57:02.385Z,20.70
2023-07-12T23:59:34.734Z,20.68
